sensor_id;sensor_type;location;lat;lon;timestamp;P1;durP1;ratioP1;P2;durP2;ratioP2
72590;SDS011;60625;51.212;5.952;2022-10-31T00:00:16;19.80;;;9.70;;
72590;SDS011;60625;51.212;5.952;2022-10-31T00:05:16;17.50;;;8.90;;
72590;SDS011;60625;51.212;5.952;2022-10-31T00:10:17;19.70;;;9.90;;
72590;SDS011;60625;51.212;5.952;2022-10-31T00:15:18;16.00;;;9.30;;
72590;SDS011;60625;51.212;5.952;2022-10-31T00:20:18;14.70;;;8.50;;
72590;SDS011;60625;51.212;5.952;2022-10-31T00:25:18;16.50;;;7.80;;
72590;SDS011;60625;51.212;5.952;2022-10-31T00:30:20;14.40;;;7.10;;
72590;SDS011;60625;51.212;5.952;2022-10-31T00:35:21;17.50;;;7.80;;
72590;SDS011;60625;51.212;5.952;2022-10-31T00:40:21;15.10;;;8.00;;
72590;SDS011;60625;51.212;5.952;2022-10-31T00:45:22;14.90;;;7.90;;
72590;SDS011;60625;51.212;5.952;2022-10-31T00:50:22;16.00;;;8.50;;
72590;SDS011;60625;51.212;5.952;2022-10-31T00:55:24;18.50;;;8.20;;
72590;SDS011;60625;51.212;5.952;2022-10-31T01:00:25;18.30;;;9.30;;
72590;SDS011;60625;51.212;5.952;2022-10-31T01:05:26;17.90;;;8.00;;
72590;SDS011;60625;51.212;5.952;2022-10-31T01:10:26;15.70;;;9.00;;
72590;SDS011;60625;51.212;5.952;2022-10-31T01:15:27;19.40;;;9.80;;
72590;SDS011;60625;51.212;5.952;2022-10-31T01:20:27;22.30;;;9.40;;
72590;SDS011;60625;51.212;5.952;2022-10-31T01:25:28;21.20;;;9.60;;
72590;SDS011;60625;51.212;5.952;2022-10-31T01:30:28;21.70;;;10.70;;
72590;SDS011;60625;51.212;5.952;2022-10-31T01:35:29;21.30;;;9.30;;
72590;SDS011;60625;51.212;5.952;2022-10-31T01:40:29;23.20;;;9.40;;
72590;SDS011;60625;51.212;5.952;2022-10-31T01:45:30;21.80;;;9.60;;
72590;SDS011;60625;51.212;5.952;2022-10-31T01:50:35;19.00;;;9.40;;
72590;SDS011;60625;51.212;5.952;2022-10-31T01:55:44;17.40;;;8.60;;
72590;SDS011;60625;51.212;5.952;2022-10-31T02:00:51;16.80;;;8.30;;
72590;SDS011;60625;51.212;5.952;2022-10-31T02:05:55;13.80;;;8.40;;
72590;SDS011;60625;51.212;5.952;2022-10-31T02:10:58;19.00;;;8.50;;
72590;SDS011;60625;51.212;5.952;2022-10-31T02:16:00;17.10;;;10.10;;
72590;SDS011;60625;51.212;5.952;2022-10-31T02:21:33;21.70;;;10.10;;
72590;SDS011;60625;51.212;5.952;2022-10-31T02:26:45;17.30;;;9.10;;
72590;SDS011;60625;51.212;5.952;2022-10-31T02:32:18;22.70;;;9.50;;
72590;SDS011;60625;51.212;5.952;2022-10-31T02:37:38;22.70;;;9.10;;
72590;SDS011;60625;51.212;5.952;2022-10-31T02:48:14;18.30;;;8.40;;
72590;SDS011;60625;51.212;5.952;2022-10-31T02:53:18;18.80;;;9.80;;
72590;SDS011;60625;51.212;5.952;2022-10-31T02:58:22;14.50;;;7.30;;
72590;SDS011;60625;51.212;5.952;2022-10-31T03:14:37;20.10;;;9.10;;
72590;SDS011;60625;51.212;5.952;2022-10-31T03:19:53;16.70;;;9.30;;
72590;SDS011;60625;51.212;5.952;2022-10-31T03:24:57;18.80;;;10.00;;
72590;SDS011;60625;51.212;5.952;2022-10-31T03:30:03;22.10;;;10.90;;
72590;SDS011;60625;51.212;5.952;2022-10-31T03:35:10;18.20;;;10.60;;
72590;SDS011;60625;51.212;5.952;2022-10-31T03:40:14;21.70;;;10.30;;
72590;SDS011;60625;51.212;5.952;2022-10-31T03:45:22;24.50;;;9.70;;
72590;SDS011;60625;51.212;5.952;2022-10-31T03:50:29;17.40;;;9.30;;
72590;SDS011;60625;51.212;5.952;2022-10-31T03:55:44;17.00;;;9.00;;
72590;SDS011;60625;51.212;5.952;2022-10-31T04:00:52;21.90;;;9.10;;
72590;SDS011;60625;51.212;5.952;2022-10-31T04:05:56;18.40;;;9.40;;
72590;SDS011;60625;51.212;5.952;2022-10-31T04:11:00;18.60;;;9.50;;
72590;SDS011;60625;51.212;5.952;2022-10-31T04:16:03;20.30;;;9.80;;
72590;SDS011;60625;51.212;5.952;2022-10-31T04:21:07;23.50;;;10.70;;
72590;SDS011;60625;51.212;5.952;2022-10-31T04:26:11;17.20;;;8.80;;
72590;SDS011;60625;51.212;5.952;2022-10-31T04:31:12;22.10;;;10.70;;
72590;SDS011;60625;51.212;5.952;2022-10-31T04:36:13;19.80;;;9.80;;
72590;SDS011;60625;51.212;5.952;2022-10-31T04:41:15;15.80;;;9.10;;
72590;SDS011;60625;51.212;5.952;2022-10-31T04:46:28;18.90;;;9.00;;
72590;SDS011;60625;51.212;5.952;2022-10-31T04:51:30;16.10;;;8.40;;
72590;SDS011;60625;51.212;5.952;2022-10-31T04:56:30;18.50;;;9.20;;
72590;SDS011;60625;51.212;5.952;2022-10-31T05:01:33;17.30;;;9.30;;
72590;SDS011;60625;51.212;5.952;2022-10-31T05:06:34;18.50;;;7.70;;
72590;SDS011;60625;51.212;5.952;2022-10-31T05:11:34;21.80;;;9.50;;
72590;SDS011;60625;51.212;5.952;2022-10-31T05:16:46;15.50;;;8.10;;
72590;SDS011;60625;51.212;5.952;2022-10-31T05:22:13;20.20;;;9.10;;
72590;SDS011;60625;51.212;5.952;2022-10-31T05:27:14;15.90;;;9.30;;
72590;SDS011;60625;51.212;5.952;2022-10-31T05:32:14;11.90;;;6.80;;
72590;SDS011;60625;51.212;5.952;2022-10-31T05:37:35;10.80;;;6.20;;
72590;SDS011;60625;51.212;5.952;2022-10-31T05:42:35;16.90;;;8.70;;
72590;SDS011;60625;51.212;5.952;2022-10-31T05:47:39;18.80;;;9.00;;
72590;SDS011;60625;51.212;5.952;2022-10-31T05:53:12;20.40;;;9.50;;
72590;SDS011;60625;51.212;5.952;2022-10-31T05:58:13;17.20;;;9.90;;
72590;SDS011;60625;51.212;5.952;2022-10-31T06:03:18;17.60;;;9.60;;
72590;SDS011;60625;51.212;5.952;2022-10-31T06:08:26;17.20;;;8.10;;
72590;SDS011;60625;51.212;5.952;2022-10-31T06:13:28;18.40;;;9.00;;
72590;SDS011;60625;51.212;5.952;2022-10-31T06:18:36;22.50;;;9.20;;
72590;SDS011;60625;51.212;5.952;2022-10-31T06:23:37;24.90;;;11.10;;
72590;SDS011;60625;51.212;5.952;2022-10-31T06:29:04;25.60;;;9.80;;
72590;SDS011;60625;51.212;5.952;2022-10-31T06:34:26;20.30;;;10.00;;
72590;SDS011;60625;51.212;5.952;2022-10-31T06:39:27;21.10;;;8.90;;
72590;SDS011;60625;51.212;5.952;2022-10-31T06:44:27;17.60;;;9.00;;
72590;SDS011;60625;51.212;5.952;2022-10-31T06:49:27;17.90;;;8.30;;
72590;SDS011;60625;51.212;5.952;2022-10-31T06:54:33;19.80;;;9.30;;
72590;SDS011;60625;51.212;5.952;2022-10-31T06:59:33;22.70;;;9.50;;
72590;SDS011;60625;51.212;5.952;2022-10-31T07:04:39;16.40;;;9.10;;
72590;SDS011;60625;51.212;5.952;2022-10-31T07:09:41;17.20;;;9.40;;
72590;SDS011;60625;51.212;5.952;2022-10-31T07:14:42;18.30;;;9.70;;
72590;SDS011;60625;51.212;5.952;2022-10-31T07:19:44;16.50;;;8.80;;
72590;SDS011;60625;51.212;5.952;2022-10-31T07:24:45;20.50;;;9.40;;
72590;SDS011;60625;51.212;5.952;2022-10-31T07:30:11;14.30;;;8.00;;
72590;SDS011;60625;51.212;5.952;2022-10-31T07:35:15;16.60;;;9.20;;
72590;SDS011;60625;51.212;5.952;2022-10-31T07:40:22;18.10;;;9.10;;
72590;SDS011;60625;51.212;5.952;2022-10-31T07:45:23;19.20;;;9.60;;
72590;SDS011;60625;51.212;5.952;2022-10-31T07:50:44;22.20;;;9.40;;
72590;SDS011;60625;51.212;5.952;2022-10-31T07:56:11;21.50;;;9.80;;
72590;SDS011;60625;51.212;5.952;2022-10-31T08:01:12;17.50;;;8.70;;
72590;SDS011;60625;51.212;5.952;2022-10-31T08:06:14;18.60;;;10.00;;
72590;SDS011;60625;51.212;5.952;2022-10-31T08:11:34;22.10;;;9.80;;
72590;SDS011;60625;51.212;5.952;2022-10-31T08:16:35;19.10;;;10.60;;
72590;SDS011;60625;51.212;5.952;2022-10-31T08:21:36;20.00;;;10.20;;
72590;SDS011;60625;51.212;5.952;2022-10-31T08:26:37;31.30;;;11.80;;
72590;SDS011;60625;51.212;5.952;2022-10-31T08:31:38;21.40;;;10.90;;
72590;SDS011;60625;51.212;5.952;2022-10-31T08:36:57;23.10;;;12.60;;
72590;SDS011;60625;51.212;5.952;2022-10-31T08:42:04;28.80;;;13.40;;
72590;SDS011;60625;51.212;5.952;2022-10-31T08:47:05;28.30;;;13.40;;
72590;SDS011;60625;51.212;5.952;2022-10-31T08:52:07;29.50;;;14.80;;
72590;SDS011;60625;51.212;5.952;2022-10-31T08:57:11;29.00;;;15.30;;
72590;SDS011;60625;51.212;5.952;2022-10-31T09:02:17;50.00;;;23.40;;
72590;SDS011;60625;51.212;5.952;2022-10-31T09:07:17;57.60;;;26.80;;
72590;SDS011;60625;51.212;5.952;2022-10-31T09:12:18;60.10;;;28.10;;
72590;SDS011;60625;51.212;5.952;2022-10-31T09:17:46;50.80;;;23.20;;
72590;SDS011;60625;51.212;5.952;2022-10-31T09:23:16;54.90;;;23.10;;
72590;SDS011;60625;51.212;5.952;2022-10-31T09:28:20;43.50;;;22.20;;
72590;SDS011;60625;51.212;5.952;2022-10-31T09:33:23;47.40;;;21.00;;
72590;SDS011;60625;51.212;5.952;2022-10-31T09:38:36;41.40;;;19.40;;
72590;SDS011;60625;51.212;5.952;2022-10-31T09:44:03;38.20;;;19.20;;
72590;SDS011;60625;51.212;5.952;2022-10-31T09:49:42;36.70;;;18.00;;
72590;SDS011;60625;51.212;5.952;2022-10-31T09:55:20;39.00;;;18.80;;
72590;SDS011;60625;51.212;5.952;2022-10-31T10:00:23;39.60;;;19.10;;
72590;SDS011;60625;51.212;5.952;2022-10-31T10:05:30;39.20;;;19.90;;
72590;SDS011;60625;51.212;5.952;2022-10-31T10:22:14;33.40;;;17.10;;
72590;SDS011;60625;51.212;5.952;2022-10-31T10:27:32;32.60;;;15.90;;
72590;SDS011;60625;51.212;5.952;2022-10-31T10:32:51;32.00;;;15.60;;
72590;SDS011;60625;51.212;5.952;2022-10-31T10:38:02;29.80;;;13.40;;
72590;SDS011;60625;51.212;5.952;2022-10-31T10:43:24;27.20;;;12.80;;
72590;SDS011;60625;51.212;5.952;2022-10-31T10:48:43;33.00;;;13.40;;
72590;SDS011;60625;51.212;5.952;2022-10-31T10:59:18;23.70;;;11.50;;
72590;SDS011;60625;51.212;5.952;2022-10-31T11:04:31;29.30;;;12.30;;
72590;SDS011;60625;51.212;5.952;2022-10-31T11:09:34;27.10;;;11.00;;
72590;SDS011;60625;51.212;5.952;2022-10-31T11:14:45;28.00;;;11.60;;
72590;SDS011;60625;51.212;5.952;2022-10-31T11:25:25;21.00;;;10.70;;
72590;SDS011;60625;51.212;5.952;2022-10-31T11:30:27;20.30;;;9.60;;
72590;SDS011;60625;51.212;5.952;2022-10-31T11:35:28;27.20;;;7.70;;
72590;SDS011;60625;51.212;5.952;2022-10-31T11:40:29;20.30;;;8.20;;
72590;SDS011;60625;51.212;5.952;2022-10-31T11:45:32;18.40;;;8.50;;
72590;SDS011;60625;51.212;5.952;2022-10-31T11:50:37;22.80;;;7.50;;
72590;SDS011;60625;51.212;5.952;2022-10-31T11:55:41;20.70;;;8.70;;
72590;SDS011;60625;51.212;5.952;2022-10-31T12:00:49;23.30;;;8.30;;
72590;SDS011;60625;51.212;5.952;2022-10-31T12:05:58;19.50;;;8.20;;
72590;SDS011;60625;51.212;5.952;2022-10-31T12:11:33;19.50;;;8.20;;
72590;SDS011;60625;51.212;5.952;2022-10-31T12:17:13;21.60;;;8.50;;
72590;SDS011;60625;51.212;5.952;2022-10-31T12:22:36;20.40;;;8.60;;
72590;SDS011;60625;51.212;5.952;2022-10-31T12:28:12;17.60;;;7.30;;
72590;SDS011;60625;51.212;5.952;2022-10-31T12:33:53;18.70;;;7.10;;
72590;SDS011;60625;51.212;5.952;2022-10-31T12:45:20;21.30;;;7.80;;
72590;SDS011;60625;51.212;5.952;2022-10-31T12:51:04;18.10;;;7.50;;
72590;SDS011;60625;51.212;5.952;2022-10-31T12:56:36;19.70;;;7.30;;
72590;SDS011;60625;51.212;5.952;2022-10-31T13:01:59;21.40;;;7.40;;
72590;SDS011;60625;51.212;5.952;2022-10-31T13:07:12;22.40;;;7.30;;
72590;SDS011;60625;51.212;5.952;2022-10-31T13:12:18;19.70;;;7.70;;
72590;SDS011;60625;51.212;5.952;2022-10-31T13:17:44;19.80;;;7.10;;
72590;SDS011;60625;51.212;5.952;2022-10-31T13:22:49;18.90;;;7.90;;
72590;SDS011;60625;51.212;5.952;2022-10-31T13:28:00;15.40;;;6.60;;
72590;SDS011;60625;51.212;5.952;2022-10-31T13:33:09;16.40;;;6.40;;
72590;SDS011;60625;51.212;5.952;2022-10-31T13:38:22;19.40;;;8.50;;
72590;SDS011;60625;51.212;5.952;2022-10-31T13:54:34;20.10;;;6.80;;
72590;SDS011;60625;51.212;5.952;2022-10-31T13:59:37;16.90;;;5.90;;
72590;SDS011;60625;51.212;5.952;2022-10-31T14:04:45;15.20;;;4.80;;
72590;SDS011;60625;51.212;5.952;2022-10-31T14:10:04;12.10;;;5.30;;
72590;SDS011;60625;51.212;5.952;2022-10-31T14:25:27;15.50;;;5.00;;
72590;SDS011;60625;51.212;5.952;2022-10-31T14:30:29;13.00;;;4.70;;
72590;SDS011;60625;51.212;5.952;2022-10-31T14:36:07;11.20;;;4.60;;
72590;SDS011;60625;51.212;5.952;2022-10-31T14:51:56;15.30;;;4.70;;
72590;SDS011;60625;51.212;5.952;2022-10-31T14:57:05;16.60;;;4.90;;
72590;SDS011;60625;51.212;5.952;2022-10-31T15:02:29;16.70;;;5.00;;
72590;SDS011;60625;51.212;5.952;2022-10-31T15:07:36;13.90;;;4.80;;
72590;SDS011;60625;51.212;5.952;2022-10-31T15:12:53;15.30;;;4.50;;
72590;SDS011;60625;51.212;5.952;2022-10-31T15:17:57;15.00;;;4.50;;
72590;SDS011;60625;51.212;5.952;2022-10-31T15:22:59;21.30;;;5.40;;
72590;SDS011;60625;51.212;5.952;2022-10-31T15:28:00;11.80;;;4.50;;
72590;SDS011;60625;51.212;5.952;2022-10-31T15:33:00;19.30;;;4.60;;
72590;SDS011;60625;51.212;5.952;2022-10-31T15:38:01;12.40;;;4.30;;
72590;SDS011;60625;51.212;5.952;2022-10-31T15:43:03;17.10;;;4.60;;
72590;SDS011;60625;51.212;5.952;2022-10-31T15:48:23;15.40;;;4.60;;
72590;SDS011;60625;51.212;5.952;2022-10-31T15:53:27;12.50;;;4.60;;
72590;SDS011;60625;51.212;5.952;2022-10-31T15:58:41;12.10;;;4.60;;
72590;SDS011;60625;51.212;5.952;2022-10-31T16:03:57;12.20;;;4.80;;
72590;SDS011;60625;51.212;5.952;2022-10-31T16:08:58;12.60;;;4.40;;
72590;SDS011;60625;51.212;5.952;2022-10-31T16:19:16;18.00;;;6.10;;
72590;SDS011;60625;51.212;5.952;2022-10-31T16:24:28;12.10;;;4.70;;
72590;SDS011;60625;51.212;5.952;2022-10-31T16:29:47;16.00;;;5.50;;
72590;SDS011;60625;51.212;5.952;2022-10-31T16:34:57;12.30;;;4.90;;
72590;SDS011;60625;51.212;5.952;2022-10-31T16:40:17;10.60;;;4.50;;
72590;SDS011;60625;51.212;5.952;2022-10-31T16:45:24;12.70;;;4.50;;
72590;SDS011;60625;51.212;5.952;2022-10-31T16:50:26;16.70;;;4.70;;
72590;SDS011;60625;51.212;5.952;2022-10-31T16:55:27;10.80;;;4.40;;
72590;SDS011;60625;51.212;5.952;2022-10-31T17:00:28;10.40;;;3.90;;
72590;SDS011;60625;51.212;5.952;2022-10-31T17:05:28;12.90;;;4.20;;
72590;SDS011;60625;51.212;5.952;2022-10-31T17:10:33;13.50;;;3.80;;
72590;SDS011;60625;51.212;5.952;2022-10-31T17:15:40;10.30;;;3.50;;
72590;SDS011;60625;51.212;5.952;2022-10-31T17:20:43;17.30;;;3.90;;
72590;SDS011;60625;51.212;5.952;2022-10-31T17:25:44;12.70;;;3.80;;
72590;SDS011;60625;51.212;5.952;2022-10-31T17:30:44;13.60;;;4.00;;
72590;SDS011;60625;51.212;5.952;2022-10-31T17:35:45;15.20;;;4.50;;
72590;SDS011;60625;51.212;5.952;2022-10-31T17:40:45;11.30;;;4.70;;
72590;SDS011;60625;51.212;5.952;2022-10-31T17:45:46;11.60;;;4.20;;
72590;SDS011;60625;51.212;5.952;2022-10-31T17:50:46;11.90;;;4.70;;
72590;SDS011;60625;51.212;5.952;2022-10-31T17:55:47;12.30;;;4.00;;
72590;SDS011;60625;51.212;5.952;2022-10-31T18:00:48;12.90;;;4.20;;
72590;SDS011;60625;51.212;5.952;2022-10-31T18:05:56;13.50;;;3.20;;
72590;SDS011;60625;51.212;5.952;2022-10-31T18:10:59;11.80;;;4.00;;
72590;SDS011;60625;51.212;5.952;2022-10-31T18:16:07;12.70;;;4.10;;
72590;SDS011;60625;51.212;5.952;2022-10-31T18:21:09;18.50;;;4.20;;
72590;SDS011;60625;51.212;5.952;2022-10-31T18:26:09;12.30;;;4.70;;
72590;SDS011;60625;51.212;5.952;2022-10-31T18:31:10;16.70;;;4.00;;
72590;SDS011;60625;51.212;5.952;2022-10-31T18:36:11;15.10;;;3.70;;
72590;SDS011;60625;51.212;5.952;2022-10-31T18:41:13;11.20;;;3.90;;
72590;SDS011;60625;51.212;5.952;2022-10-31T18:46:16;9.80;;;3.60;;
72590;SDS011;60625;51.212;5.952;2022-10-31T18:51:18;8.80;;;3.70;;
72590;SDS011;60625;51.212;5.952;2022-10-31T18:56:19;10.30;;;3.90;;
72590;SDS011;60625;51.212;5.952;2022-10-31T19:01:20;12.30;;;4.20;;
72590;SDS011;60625;51.212;5.952;2022-10-31T19:06:24;12.90;;;4.40;;
72590;SDS011;60625;51.212;5.952;2022-10-31T19:11:26;14.30;;;4.50;;
72590;SDS011;60625;51.212;5.952;2022-10-31T19:16:27;10.60;;;4.10;;
72590;SDS011;60625;51.212;5.952;2022-10-31T19:21:28;11.60;;;3.90;;
72590;SDS011;60625;51.212;5.952;2022-10-31T19:26:32;11.60;;;3.70;;
72590;SDS011;60625;51.212;5.952;2022-10-31T19:31:34;11.70;;;4.20;;
72590;SDS011;60625;51.212;5.952;2022-10-31T19:36:34;17.70;;;3.80;;
72590;SDS011;60625;51.212;5.952;2022-10-31T19:41:35;13.60;;;4.40;;
72590;SDS011;60625;51.212;5.952;2022-10-31T19:46:36;14.70;;;4.40;;
72590;SDS011;60625;51.212;5.952;2022-10-31T19:51:37;9.20;;;3.90;;
72590;SDS011;60625;51.212;5.952;2022-10-31T19:56:37;10.60;;;3.80;;
72590;SDS011;60625;51.212;5.952;2022-10-31T20:01:37;15.90;;;5.40;;
72590;SDS011;60625;51.212;5.952;2022-10-31T20:06:39;19.60;;;7.10;;
72590;SDS011;60625;51.212;5.952;2022-10-31T20:11:42;19.90;;;6.70;;
72590;SDS011;60625;51.212;5.952;2022-10-31T20:16:43;20.90;;;7.60;;
72590;SDS011;60625;51.212;5.952;2022-10-31T20:21:44;14.70;;;5.30;;
72590;SDS011;60625;51.212;5.952;2022-10-31T20:26:45;13.00;;;4.80;;
72590;SDS011;60625;51.212;5.952;2022-10-31T20:31:46;13.90;;;4.50;;
72590;SDS011;60625;51.212;5.952;2022-10-31T20:36:46;10.40;;;4.70;;
72590;SDS011;60625;51.212;5.952;2022-10-31T20:41:47;10.50;;;4.20;;
72590;SDS011;60625;51.212;5.952;2022-10-31T20:46:47;10.30;;;4.50;;
72590;SDS011;60625;51.212;5.952;2022-10-31T20:51:48;14.80;;;4.30;;
72590;SDS011;60625;51.212;5.952;2022-10-31T20:56:49;11.60;;;4.50;;
72590;SDS011;60625;51.212;5.952;2022-10-31T21:01:49;10.10;;;4.60;;
72590;SDS011;60625;51.212;5.952;2022-10-31T21:06:50;13.10;;;4.90;;
72590;SDS011;60625;51.212;5.952;2022-10-31T21:11:50;13.30;;;5.20;;
72590;SDS011;60625;51.212;5.952;2022-10-31T21:16:50;15.10;;;5.10;;
72590;SDS011;60625;51.212;5.952;2022-10-31T21:21:51;12.90;;;5.00;;
72590;SDS011;60625;51.212;5.952;2022-10-31T21:26:52;14.50;;;5.70;;
72590;SDS011;60625;51.212;5.952;2022-10-31T21:31:52;17.40;;;5.40;;
72590;SDS011;60625;51.212;5.952;2022-10-31T21:36:53;14.80;;;4.60;;
72590;SDS011;60625;51.212;5.952;2022-10-31T21:41:53;15.30;;;5.00;;
72590;SDS011;60625;51.212;5.952;2022-10-31T21:46:53;14.70;;;4.10;;
72590;SDS011;60625;51.212;5.952;2022-10-31T21:51:54;12.80;;;3.50;;
72590;SDS011;60625;51.212;5.952;2022-10-31T21:56:56;11.80;;;4.80;;
72590;SDS011;60625;51.212;5.952;2022-10-31T22:01:57;11.40;;;4.60;;
72590;SDS011;60625;51.212;5.952;2022-10-31T22:06:59;10.20;;;3.90;;
72590;SDS011;60625;51.212;5.952;2022-10-31T22:11:59;14.60;;;3.50;;
72590;SDS011;60625;51.212;5.952;2022-10-31T22:17:06;8.40;;;3.50;;
72590;SDS011;60625;51.212;5.952;2022-10-31T22:22:07;9.40;;;4.10;;
72590;SDS011;60625;51.212;5.952;2022-10-31T22:27:07;9.90;;;4.30;;
72590;SDS011;60625;51.212;5.952;2022-10-31T22:32:08;12.00;;;4.90;;
72590;SDS011;60625;51.212;5.952;2022-10-31T22:37:09;10.30;;;4.40;;
72590;SDS011;60625;51.212;5.952;2022-10-31T22:42:10;10.60;;;3.60;;
72590;SDS011;60625;51.212;5.952;2022-10-31T22:47:10;10.50;;;4.10;;
72590;SDS011;60625;51.212;5.952;2022-10-31T22:52:11;13.70;;;4.40;;
72590;SDS011;60625;51.212;5.952;2022-10-31T22:57:11;14.10;;;4.80;;
72590;SDS011;60625;51.212;5.952;2022-10-31T23:02:12;10.20;;;3.70;;
72590;SDS011;60625;51.212;5.952;2022-10-31T23:07:12;16.00;;;4.30;;
72590;SDS011;60625;51.212;5.952;2022-10-31T23:12:12;7.70;;;3.80;;
72590;SDS011;60625;51.212;5.952;2022-10-31T23:17:32;12.40;;;4.70;;
72590;SDS011;60625;51.212;5.952;2022-10-31T23:22:32;9.90;;;4.00;;
72590;SDS011;60625;51.212;5.952;2022-10-31T23:27:33;12.40;;;4.40;;
72590;SDS011;60625;51.212;5.952;2022-10-31T23:32:35;12.10;;;3.90;;
72590;SDS011;60625;51.212;5.952;2022-10-31T23:37:37;10.30;;;4.10;;
72590;SDS011;60625;51.212;5.952;2022-10-31T23:42:38;12.00;;;4.50;;
72590;SDS011;60625;51.212;5.952;2022-10-31T23:47:38;13.10;;;4.00;;
72590;SDS011;60625;51.212;5.952;2022-10-31T23:52:39;7.80;;;3.40;;
72590;SDS011;60625;51.212;5.952;2022-10-31T23:57:39;11.20;;;3.30;;
